Time;durP1;ratioP1;P1;durP2;ratioP2;P2;SDS_P1;SDS_P2;PMS_P1;PMS_P2;Temp;Humidity;BMP_temperature;BMP_pressure;BME280_temperature;BME280_humidity;BME280_pressure;Samples;Min_cycle;Max_cycle;Signal;HPM_P1;HPM_P2
2023/01/17 00:00:46;;;;;;;2.15;0.70;;;;;;;-0.09;100.00;93087.50;5065046;28;24976;-72
2023/01/17 00:03:13;;;;;;;1.20;0.80;;;;;;;-0.08;100.00;93078.94;5085420;28;24823;-72
2023/01/17 00:11:10;;;;;;;2.00;0.90;;;;;;;-0.11;100.00;93094.38;5084360;28;24422;-72
2023/01/17 00:13:37;;;;;;;0.68;0.50;;;;;;;-0.15;100.00;93095.50;5079913;28;25003;-72
2023/01/17 00:16:03;;;;;;;1.98;0.90;;;;;;;-0.18;100.00;93090.63;5085753;28;24796;-72
2023/01/17 00:18:30;;;;;;;1.88;0.70;;;;;;;-0.13;100.00;93093.69;5068306;28;24806;-72
2023/01/17 01:35:49;;;;;;;1.98;0.80;;;;;;;-0.11;100.00;93130.00;5080122;28;24491;-73
2023/01/17 01:38:16;;;;;;;1.75;0.90;;;;;;;-0.05;100.00;93124.53;5079846;28;24519;-73
2023/01/17 01:40:47;;;;;;;2.38;0.93;;;;;;;-0.06;100.00;93130.56;5062486;28;24441;-73
2023/01/17 01:43:16;;;;;;;2.30;0.75;;;;;;;-0.05;100.00;93140.63;5079264;28;24434;-73
2023/01/17 01:45:47;;;;;;;1.67;0.93;;;;;;;-0.04;100.00;93142.28;5080112;28;24834;-73
2023/01/17 01:48:31;;;;;;;3.50;1.05;;;;;;;-0.04;100.00;93146.50;5079504;28;24533;-73
2023/01/17 01:50:58;;;;;;;2.65;1.05;;;;;;;-0.08;100.00;93150.16;5076513;28;24427;-73
2023/01/17 01:53:25;;;;;;;1.08;0.80;;;;;;;-0.06;100.00;93149.16;5084753;28;24843;-73
2023/01/17 01:55:52;;;;;;;0.70;0.60;;;;;;;0.07;100.00;93145.84;5079262;28;24434;-73
2023/01/17 01:58:23;;;;;;;3.20;1.13;;;;;;;0.23;100.00;93143.94;5072316;28;24434;-73
2023/01/17 02:00:50;;;;;;;1.70;0.95;;;;;;;0.13;100.00;93150.53;5080372;28;24453;-72
2023/01/17 02:03:24;;;;;;;2.13;1.05;;;;;;;0.00;100.00;93153.06;5070943;28;24437;-73
2023/01/17 02:05:51;;;;;;;1.20;0.80;;;;;;;0.09;100.00;93149.09;5081017;28;24843;-72
2023/01/17 02:08:22;;;;;;;1.52;0.82;;;;;;;0.20;100.00;93144.16;5064306;28;24458;-73
2023/01/17 02:10:49;;;;;;;1.48;0.88;;;;;;;0.27;100.00;93142.03;5075969;28;24465;-72
2023/01/17 02:13:19;;;;;;;1.75;0.82;;;;;;;0.26;100.00;93138.66;5070962;28;24450;-73
2023/01/17 02:15:57;;;;;;;2.10;0.80;;;;;;;0.30;100.00;93149.44;5075387;28;24430;-73
2023/01/17 02:18:38;;;;;;;1.40;0.75;;;;;;;0.22;100.00;93147.38;5080364;28;24433;-73
2023/01/17 02:21:16;;;;;;;1.70;0.70;;;;;;;0.22;100.00;93152.47;5079825;28;24426;-73
2023/01/17 02:24:07;;;;;;;0.88;0.70;;;;;;;0.29;100.00;93146.06;5079247;28;25030;-73
2023/01/17 02:26:49;;;;;;;0.90;0.60;;;;;;;0.32;100.00;93140.78;5065811;28;24439;-73
2023/01/17 02:29:49;;;;;;;1.05;0.77;;;;;;;0.21;100.00;93136.41;5070640;28;24442;-72
2023/01/17 02:32:28;;;;;;;2.30;0.80;;;;;;;0.16;100.00;93142.72;5062130;28;24495;-73
2023/01/17 02:35:01;;;;;;;1.35;0.80;;;;;;;0.08;100.00;93139.84;5074433;28;24445;-73
2023/01/17 02:37:36;;;;;;;2.50;1.02;;;;;;;0.07;100.00;93138.19;5061179;28;25010;-73
2023/01/17 02:40:07;;;;;;;1.17;0.70;;;;;;;0.07;100.00;93141.56;5071557;28;24443;-73
2023/01/17 02:42:38;;;;;;;1.85;0.82;;;;;;;0.08;100.00;93138.13;5074632;28;24434;-73
2023/01/17 02:45:06;;;;;;;1.33;0.80;;;;;;;0.08;100.00;93134.75;5075148;28;24446;-73
2023/01/17 02:47:34;;;;;;;1.13;0.73;;;;;;;0.08;100.00;93138.13;5081191;28;24822;-73
2023/01/17 02:50:05;;;;;;;3.50;0.70;;;;;;;0.06;100.00;93142.47;5082424;28;24435;-73
2023/01/17 02:52:49;;;;;;;1.42;0.80;;;;;;;0.10;100.00;93133.72;5075892;28;24439;-72
2023/01/17 02:55:24;;;;;;;4.80;0.88;;;;;;;0.04;100.00;93134.13;5077256;28;24445;-72
2023/01/17 02:58:06;;;;;;;1.15;0.70;;;;;;;0.06;100.00;93141.66;5073274;28;24439;-72
2023/01/17 03:00:44;;;;;;;1.08;0.68;;;;;;;0.04;100.00;93139.22;5081550;28;24430;-72
2023/01/17 03:03:20;;;;;;;1.30;0.70;;;;;;;-0.04;100.00;93136.34;5075266;28;24442;-72
2023/01/17 03:05:51;;;;;;;1.30;0.80;;;;;;;-0.03;100.00;93138.81;5069861;28;24439;-73
2023/01/17 03:08:19;;;;;;;2.10;0.85;;;;;;;-0.03;100.00;93140.53;5072439;28;24442;-73
2023/01/17 03:10:46;;;;;;;1.75;1.05;;;;;;;-0.07;100.00;93137.38;5081186;28;24434;-72
2023/01/17 03:13:12;;;;;;;3.80;0.80;;;;;;;-0.12;100.00;93138.56;5074422;28;24442;-72
2023/01/17 03:15:40;;;;;;;1.73;1.20;;;;;;;-0.21;100.00;93149.34;5069897;28;24568;-73
2023/01/17 03:18:11;;;;;;;1.73;1.08;;;;;;;-0.29;100.00;93157.44;5066240;28;24442;-72
2023/01/17 03:20:39;;;;;;;1.63;0.82;;;;;;;-0.33;100.00;93161.09;5078873;28;24434;-72
2023/01/17 03:23:05;;;;;;;3.03;0.82;;;;;;;-0.35;100.00;93161.16;5070588;28;24470;-71
2023/01/17 03:25:32;;;;;;;1.10;0.90;;;;;;;-0.31;100.00;93162.59;5063768;28;24435;-72
2023/01/17 03:27:58;;;;;;;2.55;1.00;;;;;;;-0.17;100.00;93164.28;5060905;28;25048;-72
2023/01/17 03:30:25;;;;;;;1.75;0.85;;;;;;;-0.14;100.00;93163.31;5080971;28;24441;-72
2023/01/17 03:32:51;;;;;;;1.00;0.77;;;;;;;-0.25;100.00;93162.22;5071681;28;24531;-72
2023/01/17 03:35:18;;;;;;;3.22;0.80;;;;;;;-0.19;100.00;93155.13;5072574;28;24427;-71
2023/01/17 03:37:45;;;;;;;2.55;0.70;;;;;;;-0.09;100.00;93151.09;5062352;28;24431;-73
2023/01/17 03:40:12;;;;;;;1.20;0.70;;;;;;;-0.17;100.00;93151.56;5079594;28;24437;-72
2023/01/17 03:42:39;;;;;;;1.00;0.80;;;;;;;-0.16;100.00;93155.75;5070981;28;25081;-73
2023/01/17 03:45:06;;;;;;;1.38;0.60;;;;;;;-0.12;100.00;93144.47;5072624;28;24526;-73
2023/01/17 03:47:34;;;;;;;1.98;0.82;;;;;;;-0.13;100.00;93137.75;5062085;28;24450;-72
2023/01/17 03:50:01;;;;;;;1.60;1.10;;;;;;;-0.19;100.00;93140.66;5065107;28;25022;-73
2023/01/17 03:52:27;;;;;;;1.27;0.98;;;;;;;-0.10;100.00;93131.66;5074847;28;24466;-73
2023/01/17 03:54:55;;;;;;;1.05;0.80;;;;;;;-0.03;100.00;93127.81;5064156;28;24435;-73
2023/01/17 03:57:22;;;;;;;0.98;0.77;;;;;;;-0.02;100.00;93124.34;5064007;28;24995;-72
2023/01/17 03:59:48;;;;;;;2.25;1.13;;;;;;;0.07;100.00;93128.84;5074330;28;25012;-72
2023/01/17 04:02:15;;;;;;;2.15;0.98;;;;;;;-0.08;100.00;93140.00;5079644;28;25000;-72
2023/01/17 04:04:41;;;;;;;1.33;0.93;;;;;;;-0.05;100.00;93132.16;5070237;28;24450;-72
2023/01/17 04:07:07;;;;;;;1.58;0.90;;;;;;;-0.02;100.00;93135.34;5081686;28;24434;-73
2023/01/17 04:09:34;;;;;;;0.88;0.60;;;;;;;0.12;100.00;93141.28;5076610;28;24437;-73
2023/01/17 04:12:02;;;;;;;1.40;0.90;;;;;;;0.13;100.00;93136.09;5082271;28;24438;-73
2023/01/17 04:14:28;;;;;;;1.38;0.80;;;;;;;-0.01;100.00;93131.06;5077886;28;24433;-73
2023/01/17 04:16:56;;;;;;;1.52;0.90;;;;;;;-0.09;100.00;93135.81;5082580;28;24438;-73
2023/01/17 04:19:22;;;;;;;1.15;0.80;;;;;;;-0.22;100.00;93140.88;5078093;28;24431;-73
2023/01/17 04:21:49;;;;;;;1.90;1.00;;;;;;;-0.25;100.00;93139.34;5082460;28;24437;-73
2023/01/17 04:24:15;;;;;;;4.13;1.20;;;;;;;-0.22;100.00;93137.50;5079028;28;25015;-71
2023/01/17 04:26:41;;;;;;;1.40;0.98;;;;;;;-0.18;100.00;93144.06;5084698;28;24983;-72
2023/01/17 04:29:09;;;;;;;2.00;1.00;;;;;;;-0.19;100.00;93142.41;5079800;28;24454;-73
2023/01/17 04:31:36;;;;;;;1.95;1.30;;;;;;;-0.40;100.00;93153.03;5082637;28;24437;-72
2023/01/17 04:34:02;;;;;;;1.85;1.60;;;;;;;-0.50;100.00;93149.41;5078563;28;24435;-73
2023/01/17 04:36:29;;;;;;;1.95;1.48;;;;;;;-0.41;100.00;93148.81;5077334;28;24839;-73
2023/01/17 04:38:55;;;;;;;1.33;1.23;;;;;;;-0.34;100.00;93156.91;5080014;28;24434;-73
2023/01/17 04:41:21;;;;;;;1.77;1.48;;;;;;;-0.30;100.00;93154.09;5081933;28;24441;-72
2023/01/17 04:43:48;;;;;;;1.87;1.17;;;;;;;-0.24;100.00;93152.88;5080681;28;24530;-72
2023/01/17 04:46:16;;;;;;;1.83;0.90;;;;;;;-0.17;100.00;93156.66;5076335;28;24442;-72
2023/01/17 04:48:43;;;;;;;1.93;0.80;;;;;;;-0.23;100.00;93158.78;5082689;28;25067;-73
2023/01/17 04:51:09;;;;;;;1.25;0.82;;;;;;;-0.38;100.00;93158.00;5079156;28;24438;-73
2023/01/17 04:53:36;;;;;;;1.05;0.80;;;;;;;-0.35;100.00;93157.81;5081856;28;24475;-72
2023/01/17 04:56:02;;;;;;;0.88;0.77;;;;;;;-0.40;100.00;93167.47;5067584;28;24439;-72
2023/01/17 04:58:29;;;;;;;1.88;1.00;;;;;;;-0.36;100.00;93164.63;5069846;28;24511;-73
2023/01/17 05:01:00;;;;;;;2.28;1.00;;;;;;;-0.36;100.00;93171.44;5067534;28;24443;-73
2023/01/17 05:03:28;;;;;;;2.05;1.08;;;;;;;-0.38;100.00;93179.16;5077440;28;24445;-73
2023/01/17 05:05:54;;;;;;;1.38;0.80;;;;;;;-0.34;100.00;93178.06;5079108;28;25021;-73
2023/01/17 05:08:21;;;;;;;1.25;0.80;;;;;;;-0.32;100.00;93178.78;5073369;28;24814;-72
2023/01/17 05:10:47;;;;;;;0.63;0.60;;;;;;;-0.31;100.00;93171.97;5070680;28;24442;-72
2023/01/17 05:13:14;;;;;;;0.90;0.57;;;;;;;-0.26;100.00;93167.41;5075536;28;24437;-72
2023/01/17 05:15:41;;;;;;;1.90;0.90;;;;;;;-0.56;100.00;93168.38;5070946;28;24529;-73
2023/01/17 05:18:11;;;;;;;2.55;1.35;;;;;;;-0.57;100.00;93158.31;5069781;28;24434;-74
2023/01/17 05:20:39;;;;;;;1.97;1.57;;;;;;;-0.42;100.00;93156.56;5064191;28;24423;-74
2023/01/17 05:23:06;;;;;;;3.00;2.67;;;;;;;-0.51;100.00;93155.41;5072585;28;24442;-74
2023/01/17 05:25:33;;;;;;;2.20;2.00;;;;;;;-0.68;100.00;93143.72;5073503;28;24430;-73
2023/01/17 05:28:00;;;;;;;1.88;1.58;;;;;;;-0.69;100.00;93147.19;5080176;28;24458;-73
2023/01/17 05:30:28;;;;;;;2.70;1.80;;;;;;;-0.58;100.00;93144.00;5075211;28;24434;-72
2023/01/17 05:32:55;;;;;;;1.88;1.25;;;;;;;-0.43;100.00;93137.13;5068658;28;24836;-72
2023/01/17 05:35:24;;;;;;;2.00;1.20;;;;;;;-0.43;100.00;93135.41;5063497;28;24991;-73
2023/01/17 05:37:52;;;;;;;1.63;0.90;;;;;;;-0.49;100.00;93140.88;5064728;28;24467;-73
2023/01/17 05:40:21;;;;;;;2.95;1.10;;;;;;;0.13;100.00;93146.25;5060702;28;24434;-72
2023/01/17 05:42:49;;;;;;;4.63;1.80;;;;;;;-0.30;100.00;93138.84;5065309;28;24431;-73
2023/01/17 05:45:16;;;;;;;5.13;2.50;;;;;;;-0.61;100.00;93132.28;5060074;28;24536;-73
2023/01/17 05:47:43;;;;;;;5.18;2.33;;;;;;;-0.79;100.00;93144.38;5070796;28;25107;-72
2023/01/17 05:50:11;;;;;;;4.95;2.28;;;;;;;-0.85;100.00;93146.50;5081190;28;24793;-73
2023/01/17 05:52:37;;;;;;;2.63;1.60;;;;;;;-1.05;100.00;93153.56;5065028;28;25023;-72
2023/01/17 05:55:06;;;;;;;7.73;1.73;;;;;;;-1.12;100.00;93149.75;5077898;28;24796;-73
2023/01/17 05:57:33;;;;;;;4.47;1.80;;;;;;;-0.95;100.00;93141.16;5078209;28;24434;-73
2023/01/17 05:59:59;;;;;;;2.87;1.30;;;;;;;-0.90;100.00;93135.78;5077165;28;24438;-73
2023/01/17 06:02:26;;;;;;;3.15;1.55;;;;;;;-0.97;100.00;93128.53;5072672;28;24998;-73
2023/01/17 06:04:52;;;;;;;2.50;1.70;;;;;;;-0.95;100.00;93118.28;5075214;28;24797;-73
2023/01/17 06:07:19;;;;;;;3.35;1.73;;;;;;;-0.88;100.00;93113.66;5069717;28;24434;-72
2023/01/17 06:09:45;;;;;;;4.28;1.88;;;;;;;-0.93;100.00;93119.00;5079046;28;24936;-72
2023/01/17 06:12:13;;;;;;;4.83;1.80;;;;;;;-0.87;100.00;93108.47;5071564;28;24453;-72
2023/01/17 06:14:40;;;;;;;3.38;1.70;;;;;;;-0.87;100.00;93105.94;5076235;28;24430;-73
2023/01/17 06:17:06;;;;;;;3.08;1.80;;;;;;;-0.82;100.00;93108.19;5079171;28;24442;-73
2023/01/17 06:19:32;;;;;;;4.90;1.83;;;;;;;-0.85;100.00;93108.38;5082140;28;24433;-73
2023/01/17 06:21:59;;;;;;;8.40;1.65;;;;;;;-1.02;100.00;93114.47;5068256;28;24438;-73
2023/01/17 06:24:25;;;;;;;3.33;1.65;;;;;;;-1.18;100.00;93101.91;5081960;28;25003;-73
2023/01/17 06:26:52;;;;;;;4.17;2.23;;;;;;;-1.24;100.00;93099.72;5073688;28;24504;-73
2023/01/17 06:29:20;;;;;;;3.83;2.60;;;;;;;-1.34;100.00;93109.59;5082439;28;24450;-73
2023/01/17 06:31:46;;;;;;;5.18;2.75;;;;;;;-1.33;100.00;93106.16;5075422;28;24441;-74
2023/01/17 06:34:13;;;;;;;4.68;2.50;;;;;;;-1.31;100.00;93101.81;5081067;28;24516;-73
2023/01/17 06:36:39;;;;;;;4.18;2.45;;;;;;;-1.23;100.00;93094.53;5078236;28;24442;-73
2023/01/17 06:39:06;;;;;;;5.00;2.55;;;;;;;-1.16;100.00;93099.25;5070463;28;24439;-73
2023/01/17 06:41:32;;;;;;;3.13;2.00;;;;;;;-1.15;100.00;93106.81;5081370;28;24434;-73
2023/01/17 06:43:58;;;;;;;2.53;2.13;;;;;;;-1.08;100.00;93102.94;5079924;28;24449;-74
2023/01/17 06:46:26;;;;;;;3.88;2.50;;;;;;;-0.99;100.00;93104.13;5076798;28;24437;-72
2023/01/17 06:48:53;;;;;;;3.97;3.40;;;;;;;-0.90;100.00;93112.91;5072659;28;24643;-73
2023/01/17 06:51:20;;;;;;;6.53;5.18;;;;;;;-0.80;100.00;93099.56;5076839;28;24536;-72
2023/01/17 06:53:47;;;;;;;18.73;5.47;;;;;;;-0.76;100.00;93101.00;5070463;28;24439;-73
2023/01/17 06:56:14;;;;;;;25.27;4.45;;;;;;;-0.74;100.00;93099.19;5077645;28;24976;-73
2023/01/17 06:58:40;;;;;;;29.93;4.30;;;;;;;-0.97;100.00;93102.31;5075299;28;25093;-73
2023/01/17 07:01:07;;;;;;;28.45;4.28;;;;;;;-1.18;100.00;93096.00;5084200;28;24481;-73
2023/01/17 07:03:36;;;;;;;23.92;3.75;;;;;;;-1.33;100.00;93085.84;5077932;28;24450;-73
2023/01/17 07:06:04;;;;;;;3.83;2.92;;;;;;;-1.26;100.00;93089.66;5068273;28;24438;-73
2023/01/17 07:08:31;;;;;;;24.08;2.92;;;;;;;-1.32;100.00;93087.47;5069309;28;24454;-73
2023/01/17 07:10:59;;;;;;;37.92;3.67;;;;;;;-1.61;100.00;93084.13;5069252;28;24448;-73
2023/01/17 07:13:26;;;;;;;40.08;2.88;;;;;;;-1.75;100.00;93079.84;5074750;28;24496;-72
2023/01/17 07:15:53;;;;;;;24.70;2.80;;;;;;;-1.71;100.00;93073.72;5068690;28;24435;-73
2023/01/17 07:18:22;;;;;;;18.48;2.70;;;;;;;-1.80;100.00;93074.25;5071118;28;24446;-73
2023/01/17 07:20:50;;;;;;;7.78;2.28;;;;;;;-1.62;100.00;93071.53;5065725;28;24484;-74
2023/01/17 07:23:16;;;;;;;9.10;2.28;;;;;;;-1.82;100.00;93065.88;5070399;28;24461;-72
2023/01/17 07:25:43;;;;;;;6.93;2.67;;;;;;;-1.40;100.00;93063.47;5074759;28;24446;-73
2023/01/17 07:28:10;;;;;;;4.57;2.63;;;;;;;-1.28;100.00;93066.06;5075422;28;24444;-73
2023/01/17 07:30:36;;;;;;;17.33;2.95;;;;;;;-1.75;100.00;93056.19;5067124;28;24442;-73
2023/01/17 07:33:03;;;;;;;2.90;2.30;;;;;;;-1.82;100.00;93058.28;5067158;28;25061;-74
2023/01/17 07:35:29;;;;;;;5.88;1.90;;;;;;;-1.99;100.00;93056.72;5054005;28;24438;-73
2023/01/17 07:37:57;;;;;;;2.00;1.80;;;;;;;-1.87;100.00;93056.94;5060450;28;24438;-73
2023/01/17 07:40:24;;;;;;;2.03;1.83;;;;;;;-1.77;100.00;93063.91;5066776;28;24985;-73
2023/01/17 07:42:50;;;;;;;3.28;2.10;;;;;;;-1.75;100.00;93079.03;5074180;28;24860;-73
2023/01/17 07:45:17;;;;;;;3.00;2.13;;;;;;;-1.69;100.00;93075.34;5073513;28;24426;-72
2023/01/17 07:47:44;;;;;;;3.47;2.72;;;;;;;-1.62;100.00;93079.97;5083005;28;24438;-72
2023/01/17 07:50:12;;;;;;;17.88;4.43;;;;;;;-1.70;100.00;93074.53;5066942;28;24462;-72
2023/01/17 07:52:38;;;;;;;22.05;5.35;;;;;;;-1.74;100.00;93078.16;5077710;28;25003;-72
2023/01/17 07:55:08;;;;;;;45.80;6.65;;;;;;;-1.87;100.00;93082.28;5069376;28;24821;-73
2023/01/17 07:57:35;;;;;;;52.10;5.63;;;;;;;-1.91;100.00;93086.72;5083715;28;24441;-73
2023/01/17 08:00:01;;;;;;;12.15;4.07;;;;;;;-1.84;100.00;93071.97;5059354;28;24434;-71
2023/01/17 08:02:28;;;;;;;47.90;4.93;;;;;;;-1.74;100.00;93071.34;5083616;28;24439;-73
2023/01/17 08:04:54;;;;;;;74.45;6.43;;;;;;;-1.72;100.00;93067.00;5071169;28;24431;-73
2023/01/17 08:07:21;;;;;;;58.75;5.35;;;;;;;-1.72;100.00;93056.84;5087632;28;24441;-73
2023/01/17 08:09:48;;;;;;;80.67;7.10;;;;;;;-1.79;100.00;93060.63;5061228;28;24458;-73
2023/01/17 08:12:17;;;;;;;78.88;6.15;;;;;;;-1.68;100.00;93071.88;5085917;28;25031;-73
2023/01/17 08:14:43;;;;;;;85.43;6.50;;;;;;;-1.62;100.00;93071.53;5078425;28;24461;-73
2023/01/17 08:17:12;;;;;;;63.05;5.40;;;;;;;-1.64;100.00;93066.53;5082919;28;25028;-73
2023/01/17 08:19:38;;;;;;;73.78;4.55;;;;;;;-1.83;100.00;93076.13;5063902;28;24446;-73
2023/01/17 08:22:05;;;;;;;79.00;3.93;;;;;;;-1.88;100.00;93068.00;5085589;28;25358;-72
2023/01/17 08:24:31;;;;;;;57.88;3.40;;;;;;;-1.87;100.00;93069.59;5081172;28;24435;-72
2023/01/17 08:26:58;;;;;;;77.72;4.93;;;;;;;-1.79;100.00;93055.56;5082910;28;24430;-73
2023/01/17 08:29:26;;;;;;;54.20;4.05;;;;;;;-1.70;100.00;93059.31;5061789;28;24454;-72
2023/01/17 08:31:52;;;;;;;76.57;4.37;;;;;;;-1.72;100.00;93059.38;5080198;28;24434;-74
2023/01/17 08:34:19;;;;;;;42.08;3.72;;;;;;;-1.49;100.00;93052.13;5075544;28;24537;-73
2023/01/17 08:36:46;;;;;;;67.70;5.35;;;;;;;-1.41;100.00;93057.56;5071144;28;24992;-73
2023/01/17 08:39:13;;;;;;;25.50;4.90;;;;;;;-1.40;100.00;93059.19;5065294;28;24436;-72
2023/01/17 08:41:40;;;;;;;44.47;4.95;;;;;;;-1.41;100.00;93057.56;5073707;28;24427;-73
2023/01/17 08:44:07;;;;;;;15.15;4.20;;;;;;;-1.19;100.00;93054.53;5081861;28;24816;-73
2023/01/17 08:46:37;;;;;;;38.87;5.13;;;;;;;-1.15;100.00;93055.16;5071939;28;24805;-72
2023/01/17 08:49:04;;;;;;;14.48;5.03;;;;;;;-1.06;100.00;93047.81;5061067;28;24454;-72
2023/01/17 08:51:31;;;;;;;19.40;5.88;;;;;;;-0.99;100.00;93051.59;5078688;28;24445;-72
2023/01/17 08:53:58;;;;;;;14.25;5.63;;;;;;;-1.00;100.00;93047.44;5076550;28;24807;-72
2023/01/17 08:56:26;;;;;;;23.27;5.28;;;;;;;-1.15;100.00;93040.75;5077783;28;24437;-72
2023/01/17 08:58:52;;;;;;;12.57;4.53;;;;;;;-1.08;100.00;93043.72;5066833;28;24430;-72
2023/01/17 09:01:19;;;;;;;6.85;4.38;;;;;;;-0.82;100.00;93044.66;5083597;28;24433;-72
2023/01/17 09:03:48;;;;;;;6.85;4.65;;;;;;;-0.75;100.00;93034.00;5083305;28;24476;-73
2023/01/17 09:06:15;;;;;;;14.00;4.63;;;;;;;-0.63;100.00;93039.22;5078233;28;24437;-72
2023/01/17 09:08:45;;;;;;;7.60;4.63;;;;;;;-0.54;100.00;93031.84;5079180;28;24430;-72
2023/01/17 09:11:14;;;;;;;7.20;5.10;;;;;;;-0.74;100.00;93028.03;5080158;28;24438;-72
2023/01/17 09:13:42;;;;;;;10.43;5.15;;;;;;;-0.64;100.00;93035.06;5081416;28;24441;-72
2023/01/17 09:16:09;;;;;;;8.27;5.00;;;;;;;-0.58;100.00;93030.41;5078018;28;24434;-73
2023/01/17 09:18:36;;;;;;;8.50;5.05;;;;;;;-0.49;100.00;93039.97;5072450;28;24827;-72
2023/01/17 09:21:11;;;;;;;6.68;5.20;;;;;;;-0.33;100.00;93024.56;5081120;28;24461;-72
2023/01/17 09:23:37;;;;;;;5.03;3.85;;;;;;;0.01;100.00;93017.28;5073127;28;24808;-72
2023/01/17 09:26:04;;;;;;;12.52;3.28;;;;;;;0.32;100.00;93008.41;5067396;28;24438;-71
2023/01/17 09:28:31;;;;;;;7.80;3.37;;;;;;;0.22;100.00;93003.16;5062546;28;24955;-72
2023/01/17 09:30:57;;;;;;;4.15;3.10;;;;;;;0.18;100.00;93008.53;5078929;28;24996;-72
2023/01/17 09:33:24;;;;;;;4.53;3.60;;;;;;;0.29;100.00;93003.53;5078092;28;24441;-72
2023/01/17 09:35:50;;;;;;;5.47;3.33;;;;;;;0.53;100.00;93006.16;5073398;28;24780;-73
2023/01/17 09:38:20;;;;;;;5.00;3.35;;;;;;;0.72;100.00;93009.06;5065898;28;24442;-72
2023/01/17 09:40:48;;;;;;;4.20;3.35;;;;;;;0.94;100.00;93008.41;5076270;28;25022;-73
2023/01/17 09:43:22;;;;;;;7.60;3.40;;;;;;;1.17;100.00;93011.06;5068996;28;24442;-73
2023/01/17 09:45:49;;;;;;;4.30;3.40;;;;;;;1.39;100.00;93008.63;5074032;28;24519;-73
2023/01/17 09:48:25;;;;;;;5.57;3.92;;;;;;;1.63;100.00;93003.50;5065643;28;25209;-72
2023/01/17 09:50:57;;;;;;;4.80;4.30;;;;;;;1.64;100.00;93010.25;5072905;28;24451;-72
2023/01/17 09:53:27;;;;;;;18.33;10.18;;;;;;;1.37;100.00;93012.19;5060708;28;24980;-71
2023/01/17 09:55:58;;;;;;;21.05;12.25;;;;;;;0.97;100.00;93009.94;5064942;28;24438;-72
2023/01/17 09:58:34;;;;;;;25.33;15.68;;;;;;;0.83;100.00;93005.78;5064221;28;24441;-72
2023/01/17 10:01:14;;;;;;;22.20;14.02;;;;;;;0.64;100.00;93005.44;5073025;28;24671;-72
2023/01/17 10:03:58;;;;;;;30.38;13.35;;;;;;;1.16;100.00;93004.34;5070932;28;24450;-72
2023/01/17 10:06:39;;;;;;;14.60;9.35;;;;;;;1.13;100.00;93004.56;5065573;28;24427;-72
2023/01/17 10:09:21;;;;;;;15.98;8.32;;;;;;;1.26;100.00;92997.69;5075808;28;24557;-74
2023/01/17 10:11:59;;;;;;;14.70;9.10;;;;;;;1.20;100.00;92986.19;5066917;28;24461;-72
2023/01/17 10:15:02;;;;;;;12.40;8.52;;;;;;;1.65;100.00;92991.44;5079648;28;24438;-72
2023/01/17 10:17:40;;;;;;;10.23;5.93;;;;;;;1.70;100.00;93002.13;5074084;28;24495;-72
2023/01/17 10:20:32;;;;;;;10.90;6.22;;;;;;;2.12;100.00;92999.91;5077484;28;24430;-72
2023/01/17 10:23:16;;;;;;;14.15;8.75;;;;;;;1.67;100.00;92992.16;5081285;28;24516;-72
2023/01/17 10:25:48;;;;;;;10.43;7.72;;;;;;;1.66;100.00;92995.63;5062559;28;24438;-72
2023/01/17 10:28:16;;;;;;;13.90;9.45;;;;;;;1.66;100.00;92993.06;5079546;28;24426;-72
2023/01/17 10:30:48;;;;;;;13.98;8.88;;;;;;;2.15;100.00;92986.94;5076368;28;24454;-71
2023/01/17 10:33:19;;;;;;;10.65;6.18;;;;;;;1.94;100.00;92996.16;5079045;28;24469;-71
2023/01/17 10:35:55;;;;;;;10.45;6.95;;;;;;;2.30;100.00;92990.06;5081417;28;24430;-72
2023/01/17 10:38:28;;;;;;;11.05;7.70;;;;;;;2.72;100.00;92990.28;5092616;28;24434;-72
2023/01/17 10:41:02;;;;;;;8.48;6.45;;;;;;;2.91;100.00;92987.13;5095233;28;25303;-72
2023/01/17 10:43:39;;;;;;;12.40;6.10;;;;;;;3.10;100.00;92986.50;5100204;28;24434;-72
2023/01/17 10:46:08;;;;;;;7.60;5.53;;;;;;;3.14;100.00;92986.13;5084172;28;24442;-72
2023/01/17 10:48:39;;;;;;;7.00;5.13;;;;;;;2.98;100.00;92988.28;5095139;28;24491;-73
2023/01/17 10:51:20;;;;;;;8.38;4.85;;;;;;;2.94;100.00;92984.34;5091244;28;24457;-72
2023/01/17 10:54:00;;;;;;;5.57;4.22;;;;;;;3.01;100.00;92982.94;5093723;28;25065;-72
2023/01/17 10:56:29;;;;;;;8.45;4.45;;;;;;;3.05;100.00;92992.00;5082218;28;24438;-73
2023/01/17 10:59:11;;;;;;;5.33;4.53;;;;;;;2.90;100.00;92986.31;5096816;28;25014;-72
2023/01/17 11:01:39;;;;;;;4.20;3.10;;;;;;;3.16;100.00;92978.38;5084530;28;24438;-72
2023/01/17 11:04:16;;;;;;;10.52;4.13;;;;;;;2.80;100.00;92977.72;5093002;28;24446;-73
2023/01/17 11:06:46;;;;;;;7.90;4.88;;;;;;;2.64;100.00;92970.44;5085718;28;24438;-73
2023/01/17 11:09:12;;;;;;;4.85;3.75;;;;;;;2.49;100.00;92973.38;5095865;28;24438;-73
2023/01/17 11:11:47;;;;;;;5.10;4.18;;;;;;;2.62;100.00;92968.94;5094737;28;24441;-74
2023/01/17 11:14:18;;;;;;;4.90;3.50;;;;;;;2.51;100.00;92963.81;5100192;28;24978;-74
2023/01/17 11:16:45;;;;;;;5.95;3.63;;;;;;;2.57;100.00;92942.94;5094017;28;24750;-74
2023/01/17 11:19:17;;;;;;;8.52;3.75;;;;;;;2.70;100.00;92937.66;5092313;28;24434;-74
2023/01/17 11:21:52;;;;;;;4.10;2.75;;;;;;;2.73;100.00;92934.88;5083815;28;24437;-73
2023/01/17 11:24:25;;;;;;;4.50;2.38;;;;;;;2.62;100.00;92933.97;5079611;28;25010;-73
2023/01/17 11:26:53;;;;;;;3.07;2.43;;;;;;;2.47;100.00;92942.81;5092218;28;24490;-74
2023/01/17 11:29:31;;;;;;;4.43;1.90;;;;;;;2.70;100.00;92938.47;5079088;28;24978;-73
2023/01/17 11:31:57;;;;;;;5.03;1.90;;;;;;;2.79;100.00;92942.09;5094203;28;24442;-73
2023/01/17 11:34:25;;;;;;;2.55;1.70;;;;;;;2.88;100.00;92949.03;5100742;28;24441;-73
2023/01/17 11:37:08;;;;;;;5.60;3.87;;;;;;;2.35;100.00;92934.34;5089510;28;24433;-73
2023/01/17 11:39:34;;;;;;;6.25;3.90;;;;;;;2.15;100.00;92917.16;5085534;28;24433;-74
2023/01/17 11:42:06;;;;;;;5.80;3.80;;;;;;;2.23;100.00;92906.38;5094769;28;24446;-74
2023/01/17 11:44:34;;;;;;;4.32;3.03;;;;;;;2.22;100.00;92903.00;5096504;28;24433;-74
2023/01/17 11:47:18;;;;;;;1.30;0.93;;;;;;;2.54;100.00;92894.63;5093117;28;24443;-74
2023/01/17 11:49:46;;;;;;;1.67;1.00;;;;;;;3.11;100.00;92890.94;5084420;28;24451;-73
2023/01/17 11:52:21;;;;;;;2.60;1.10;;;;;;;3.37;100.00;92888.88;5101346;28;25621;-73
2023/01/17 11:54:50;;;;;;;1.70;0.90;;;;;;;3.47;100.00;92873.59;5094023;28;24462;-73
2023/01/17 11:57:22;;;;;;;1.50;0.88;;;;;;;3.31;100.00;92884.25;5104265;28;24979;-73
2023/01/17 11:59:51;;;;;;;1.88;0.85;;;;;;;3.15;100.00;92869.31;5093858;28;24440;-74
2023/01/17 12:03:06;;;;;;;1.50;0.70;;;;;;;3.17;100.00;92858.97;5090969;28;24525;-74
2023/01/17 12:05:43;;;;;;;2.55;0.60;;;;;;;3.28;100.00;92844.38;5027731;28;24807;-73
2023/01/17 12:08:20;;;;;;;2.78;0.50;;;;;;;3.20;98.91;92835.72;5097626;28;25304;-73
2023/01/17 12:10:55;;;;;;;2.97;0.60;;;;;;;3.11;100.00;92839.81;5099105;28;24449;-74
2023/01/17 12:16:31;;;;;;;1.00;0.57;;;;;;;3.21;100.00;92832.22;5098162;28;24994;-74
2023/01/17 12:19:11;;;;;;;1.55;0.60;;;;;;;3.02;100.00;92841.38;5099967;28;24433;-74
2023/01/17 12:21:50;;;;;;;1.98;0.80;;;;;;;2.96;100.00;92834.19;5089462;28;24425;-74
2023/01/17 12:24:45;;;;;;;1.33;0.47;;;;;;;2.87;100.00;92832.38;5100891;28;24433;-74
2023/01/17 12:27:21;;;;;;;1.20;0.60;;;;;;;2.68;98.62;92827.91;5098390;28;24436;-74
2023/01/17 12:30:00;;;;;;;2.90;0.50;;;;;;;2.55;100.00;92822.94;5104614;28;24465;-74
2023/01/17 12:32:39;;;;;;;1.50;0.70;;;;;;;2.52;98.94;92819.81;5089913;28;24436;-73
2023/01/17 12:35:13;;;;;;;0.80;0.40;;;;;;;2.58;100.00;92809.94;5101793;28;24429;-74
2023/01/17 12:37:42;;;;;;;0.50;0.40;;;;;;;2.48;100.00;92806.47;5097600;28;24430;-73
2023/01/17 12:40:22;;;;;;;1.65;0.50;;;;;;;2.46;100.00;92797.34;5104211;28;24434;-74
2023/01/17 12:42:52;;;;;;;1.70;0.70;;;;;;;2.53;100.00;92796.72;5097042;28;24545;-74
2023/01/17 12:45:25;;;;;;;1.90;0.60;;;;;;;2.60;100.00;92790.19;5094656;28;24783;-74
2023/01/17 12:48:00;;;;;;;1.52;0.47;;;;;;;2.53;100.00;92790.81;5104583;28;24467;-73
2023/01/17 12:50:34;;;;;;;1.47;0.77;;;;;;;2.54;100.00;92779.66;5103566;28;24474;-74
2023/01/17 12:53:04;;;;;;;2.13;1.02;;;;;;;2.42;100.00;92776.34;5103118;28;24434;-74
2023/01/17 12:55:41;;;;;;;1.30;0.77;;;;;;;2.44;100.00;92771.91;5105900;28;24503;-74
2023/01/17 12:58:19;;;;;;;3.17;1.05;;;;;;;2.31;100.00;92768.72;5102108;28;24434;-73
2023/01/17 13:00:50;;;;;;;1.92;1.10;;;;;;;2.30;100.00;92778.13;5106826;28;24433;-74
2023/01/17 13:03:26;;;;;;;3.80;1.25;;;;;;;2.24;100.00;92781.13;5096302;28;24437;-74